sensor_id;sensor_type;location;lat;lon;timestamp;pressure;altitude;pressure_sealevel;temperature;humidity
37170;BME280;23062;13.952;100.608;2023-04-06T00:03:26;1008.85;;;32.29;63.07
37170;BME280;23062;13.952;100.608;2023-04-06T00:07:52;1008.80;;;32.29;62.90
37170;BME280;23062;13.952;100.608;2023-04-06T00:12:19;1008.90;;;32.30;62.88
37170;BME280;23062;13.952;100.608;2023-04-06T00:16:44;1009.07;;;32.33;63.09
37170;BME280;23062;13.952;100.608;2023-04-06T00:21:13;1009.30;;;32.32;62.94
37170;BME280;23062;13.952;100.608;2023-04-06T00:25:45;1009.41;;;32.30;63.03
37170;BME280;23062;13.952;100.608;2023-04-06T00:30:11;1009.53;;;32.32;62.86
37170;BME280;23062;13.952;100.608;2023-04-06T00:34:37;1009.65;;;32.32;62.73
37170;BME280;23062;13.952;100.608;2023-04-06T00:39:02;1009.75;;;32.32;62.64
37170;BME280;23062;13.952;100.608;2023-04-06T00:43:31;1009.79;;;32.33;62.69
37170;BME280;23062;13.952;100.608;2023-04-06T00:47:57;1009.90;;;32.32;62.70
37170;BME280;23062;13.952;100.608;2023-04-06T00:52:22;1009.92;;;32.35;62.63
37170;BME280;23062;13.952;100.608;2023-04-06T00:56:50;1010.03;;;32.38;62.83
37170;BME280;23062;13.952;100.608;2023-04-06T01:01:16;1010.08;;;32.35;62.89
37170;BME280;23062;13.952;100.608;2023-04-06T01:05:41;1010.12;;;32.39;62.96
37170;BME280;23062;13.952;100.608;2023-04-06T01:10:11;1010.15;;;32.41;63.01
37170;BME280;23062;13.952;100.608;2023-04-06T01:14:37;1010.20;;;32.41;62.99
37170;BME280;23062;13.952;100.608;2023-04-06T01:19:10;1010.15;;;32.27;63.64
37170;BME280;23062;13.952;100.608;2023-04-06T01:23:35;1010.13;;;32.28;63.62
37170;BME280;23062;13.952;100.608;2023-04-06T01:28:01;1010.18;;;32.28;63.86
37170;BME280;23062;13.952;100.608;2023-04-06T01:32:25;1010.22;;;32.10;64.54
37170;BME280;23062;13.952;100.608;2023-04-06T01:36:50;1010.28;;;32.14;64.49
37170;BME280;23062;13.952;100.608;2023-04-06T01:41:18;1010.35;;;32.21;64.60
37170;BME280;23062;13.952;100.608;2023-04-06T01:45:45;1010.37;;;32.25;64.45
37170;BME280;23062;13.952;100.608;2023-04-06T01:50:10;1010.36;;;32.26;64.54
37170;BME280;23062;13.952;100.608;2023-04-06T01:54:36;1010.36;;;32.26;64.54
37170;BME280;23062;13.952;100.608;2023-04-06T01:59:01;1010.38;;;32.33;64.50
37170;BME280;23062;13.952;100.608;2023-04-06T02:03:27;1010.40;;;32.39;64.22
37170;BME280;23062;13.952;100.608;2023-04-06T02:07:53;1010.37;;;32.40;64.18
37170;BME280;23062;13.952;100.608;2023-04-06T02:12:19;1010.41;;;32.45;64.07
37170;BME280;23062;13.952;100.608;2023-04-06T02:16:44;1010.42;;;32.51;64.05
37170;BME280;23062;13.952;100.608;2023-04-06T02:21:12;1010.45;;;32.53;63.99
37170;BME280;23062;13.952;100.608;2023-04-06T02:25:38;1010.42;;;32.57;63.83
37170;BME280;23062;13.952;100.608;2023-04-06T02:30:04;1010.38;;;32.59;63.65
37170;BME280;23062;13.952;100.608;2023-04-06T02:34:31;1010.39;;;32.66;63.24
37170;BME280;23062;13.952;100.608;2023-04-06T02:38:57;1010.37;;;32.67;63.27
37170;BME280;23062;13.952;100.608;2023-04-06T02:43:22;1010.28;;;32.67;62.93
37170;BME280;23062;13.952;100.608;2023-04-06T02:47:51;1010.26;;;32.71;62.38
37170;BME280;23062;13.952;100.608;2023-04-06T02:52:16;1010.19;;;32.71;62.36
37170;BME280;23062;13.952;100.608;2023-04-06T02:56:41;1010.16;;;32.72;61.93
37170;BME280;23062;13.952;100.608;2023-04-06T03:01:06;1010.11;;;32.77;61.08
37170;BME280;23062;13.952;100.608;2023-04-06T03:05:36;1010.21;;;32.82;60.81
37170;BME280;23062;13.952;100.608;2023-04-06T03:10:01;1010.20;;;32.84;60.64
37170;BME280;23062;13.952;100.608;2023-04-06T03:14:27;1010.04;;;32.87;59.89
37170;BME280;23062;13.952;100.608;2023-04-06T03:18:53;1010.04;;;32.91;58.84
37170;BME280;23062;13.952;100.608;2023-04-06T03:23:24;1010.03;;;32.92;58.75
37170;BME280;23062;13.952;100.608;2023-04-06T03:27:50;1009.91;;;32.92;58.89
37170;BME280;23062;13.952;100.608;2023-04-06T03:32:15;1009.89;;;32.98;57.91
37170;BME280;23062;13.952;100.608;2023-04-06T03:36:40;1009.84;;;33.00;57.41
37170;BME280;23062;13.952;100.608;2023-04-06T03:41:06;1009.78;;;33.00;57.49
37170;BME280;23062;13.952;100.608;2023-04-06T03:45:31;1009.72;;;33.02;56.78
37170;BME280;23062;13.952;100.608;2023-04-06T03:49:57;1009.79;;;33.08;56.49
37170;BME280;23062;13.952;100.608;2023-04-06T03:54:22;1009.74;;;33.12;56.09
37170;BME280;23062;13.952;100.608;2023-04-06T03:58:51;1009.66;;;33.13;56.32
37170;BME280;23062;13.952;100.608;2023-04-06T04:03:16;1009.63;;;33.23;55.55
37170;BME280;23062;13.952;100.608;2023-04-06T04:07:42;1009.54;;;33.21;55.92
37170;BME280;23062;13.952;100.608;2023-04-06T04:12:07;1009.51;;;33.22;55.51
37170;BME280;23062;13.952;100.608;2023-04-06T04:16:36;1009.45;;;33.25;55.17
37170;BME280;23062;13.952;100.608;2023-04-06T04:21:02;1009.36;;;33.31;55.03
37170;BME280;23062;13.952;100.608;2023-04-06T04:25:31;1009.32;;;33.34;54.83
37170;BME280;23062;13.952;100.608;2023-04-06T04:29:57;1009.29;;;33.33;55.07
37170;BME280;23062;13.952;100.608;2023-04-06T04:34:25;1009.20;;;33.45;54.24
37170;BME280;23062;13.952;100.608;2023-04-06T04:38:50;1009.16;;;33.41;54.15
37170;BME280;23062;13.952;100.608;2023-04-06T04:43:16;1009.13;;;33.39;53.94
37170;BME280;23062;13.952;100.608;2023-04-06T04:47:41;1009.06;;;33.45;53.25
37170;BME280;23062;13.952;100.608;2023-04-06T04:52:07;1009.01;;;33.67;51.21
37170;BME280;23062;13.952;100.608;2023-04-06T04:56:35;1008.96;;;33.66;51.81
37170;BME280;23062;13.952;100.608;2023-04-06T05:01:01;1008.90;;;33.61;52.59
37170;BME280;23062;13.952;100.608;2023-04-06T05:05:26;1008.80;;;33.58;53.07
37170;BME280;23062;13.952;100.608;2023-04-06T05:09:54;1008.80;;;33.58;53.39
37170;BME280;23062;13.952;100.608;2023-04-06T05:14:23;1008.77;;;33.75;52.56
37170;BME280;23062;13.952;100.608;2023-04-06T05:18:48;1008.74;;;33.72;52.55
37170;BME280;23062;13.952;100.608;2023-04-06T05:23:17;1008.64;;;33.77;52.31
37170;BME280;23062;13.952;100.608;2023-04-06T05:27:42;1008.55;;;33.78;51.96
37170;BME280;23062;13.952;100.608;2023-04-06T05:32:07;1008.43;;;33.74;52.03
37170;BME280;23062;13.952;100.608;2023-04-06T05:36:33;1008.37;;;33.83;50.50
37170;BME280;23062;13.952;100.608;2023-04-06T05:40:57;1008.29;;;33.90;50.01
37170;BME280;23062;13.952;100.608;2023-04-06T05:45:23;1008.21;;;33.86;50.42
37170;BME280;23062;13.952;100.608;2023-04-06T05:49:48;1008.07;;;33.85;50.34
37170;BME280;23062;13.952;100.608;2023-04-06T05:54:15;1007.98;;;33.82;50.74
37170;BME280;23062;13.952;100.608;2023-04-06T05:58:41;1007.90;;;33.83;50.46
37170;BME280;23062;13.952;100.608;2023-04-06T06:03:06;1007.85;;;33.90;49.38
37170;BME280;23062;13.952;100.608;2023-04-06T06:07:32;1007.78;;;33.94;48.86
37170;BME280;23062;13.952;100.608;2023-04-06T06:11:57;1007.70;;;33.91;49.58
37170;BME280;23062;13.952;100.608;2023-04-06T06:16:25;1007.57;;;33.84;50.12
37170;BME280;23062;13.952;100.608;2023-04-06T06:20:50;1007.47;;;33.86;50.07
37170;BME280;23062;13.952;100.608;2023-04-06T06:25:15;1007.41;;;33.95;49.47
37170;BME280;23062;13.952;100.608;2023-04-06T06:29:40;1007.25;;;33.94;49.19
37170;BME280;23062;13.952;100.608;2023-04-06T06:34:05;1007.16;;;33.93;49.11
37170;BME280;23062;13.952;100.608;2023-04-06T06:38:32;1007.01;;;33.96;48.69
37170;BME280;23062;13.952;100.608;2023-04-06T06:43:01;1006.95;;;34.06;47.97
37170;BME280;23062;13.952;100.608;2023-04-06T06:47:26;1006.92;;;34.13;48.62
37170;BME280;23062;13.952;100.608;2023-04-06T06:51:51;1006.87;;;34.13;48.40
37170;BME280;23062;13.952;100.608;2023-04-06T06:56:17;1006.77;;;34.14;48.31
37170;BME280;23062;13.952;100.608;2023-04-06T07:00:42;1006.67;;;34.12;48.42
37170;BME280;23062;13.952;100.608;2023-04-06T07:05:08;1006.53;;;34.14;48.28
37170;BME280;23062;13.952;100.608;2023-04-06T07:09:33;1006.45;;;34.18;48.22
37170;BME280;23062;13.952;100.608;2023-04-06T07:13:59;1006.39;;;34.37;47.06
37170;BME280;23062;13.952;100.608;2023-04-06T07:18:27;1006.32;;;34.29;47.88
37170;BME280;23062;13.952;100.608;2023-04-06T07:22:52;1006.23;;;34.20;48.53
37170;BME280;23062;13.952;100.608;2023-04-06T07:27:18;1006.18;;;34.26;48.26
37170;BME280;23062;13.952;100.608;2023-04-06T07:31:44;1006.08;;;34.27;47.82
37170;BME280;23062;13.952;100.608;2023-04-06T07:36:09;1006.01;;;34.36;47.72
37170;BME280;23062;13.952;100.608;2023-04-06T07:40:34;1005.98;;;34.34;48.05
37170;BME280;23062;13.952;100.608;2023-04-06T07:44:59;1005.96;;;34.40;47.66
37170;BME280;23062;13.952;100.608;2023-04-06T07:49:25;1005.81;;;34.27;48.01
37170;BME280;23062;13.952;100.608;2023-04-06T07:53:51;1005.78;;;34.25;48.28
37170;BME280;23062;13.952;100.608;2023-04-06T07:58:16;1005.71;;;34.27;48.62
37170;BME280;23062;13.952;100.608;2023-04-06T08:02:43;1005.69;;;34.27;48.57
37170;BME280;23062;13.952;100.608;2023-04-06T08:07:09;1005.57;;;34.36;48.38
37170;BME280;23062;13.952;100.608;2023-04-06T08:11:34;1005.48;;;34.40;48.09
37170;BME280;23062;13.952;100.608;2023-04-06T08:15:59;1005.47;;;34.36;48.33
37170;BME280;23062;13.952;100.608;2023-04-06T08:20:25;1005.37;;;34.39;48.15
37170;BME280;23062;13.952;100.608;2023-04-06T08:24:50;1005.35;;;34.43;47.63
37170;BME280;23062;13.952;100.608;2023-04-06T08:29:19;1005.19;;;34.46;47.33
37170;BME280;23062;13.952;100.608;2023-04-06T08:33:44;1005.18;;;34.38;47.83
37170;BME280;23062;13.952;100.608;2023-04-06T08:38:09;1005.18;;;34.35;47.60
37170;BME280;23062;13.952;100.608;2023-04-06T08:42:38;1005.13;;;34.28;47.55
37170;BME280;23062;13.952;100.608;2023-04-06T08:47:04;1005.11;;;34.30;47.51
37170;BME280;23062;13.952;100.608;2023-04-06T08:51:30;1005.07;;;34.29;47.41
37170;BME280;23062;13.952;100.608;2023-04-06T08:55:56;1005.03;;;34.25;47.57
37170;BME280;23062;13.952;100.608;2023-04-06T09:00:22;1004.97;;;34.29;47.40
37170;BME280;23062;13.952;100.608;2023-04-06T09:04:50;1004.88;;;34.27;47.67
37170;BME280;23062;13.952;100.608;2023-04-06T09:09:18;1004.89;;;34.39;47.08
37170;BME280;23062;13.952;100.608;2023-04-06T09:13:49;1004.92;;;34.31;47.54
37170;BME280;23062;13.952;100.608;2023-04-06T09:18:15;1004.91;;;34.38;47.14
37170;BME280;23062;13.952;100.608;2023-04-06T09:22:41;1004.92;;;34.30;47.46
37170;BME280;23062;13.952;100.608;2023-04-06T09:27:06;1004.97;;;34.28;47.73
37170;BME280;23062;13.952;100.608;2023-04-06T09:31:33;1004.91;;;34.32;47.83
37170;BME280;23062;13.952;100.608;2023-04-06T09:35:58;1004.85;;;34.36;47.95
37170;BME280;23062;13.952;100.608;2023-04-06T09:40:23;1004.83;;;34.33;48.24
37170;BME280;23062;13.952;100.608;2023-04-06T09:44:49;1004.87;;;34.33;48.62
37170;BME280;23062;13.952;100.608;2023-04-06T09:49:14;1004.92;;;34.44;48.36
37170;BME280;23062;13.952;100.608;2023-04-06T09:53:41;1004.99;;;34.42;48.59
37170;BME280;23062;13.952;100.608;2023-04-06T09:58:09;1004.99;;;34.41;48.86
37170;BME280;23062;13.952;100.608;2023-04-06T10:07:06;1005.01;;;34.42;48.16
37170;BME280;23062;13.952;100.608;2023-04-06T10:11:32;1005.04;;;34.38;48.00
37170;BME280;23062;13.952;100.608;2023-04-06T10:15:57;1005.06;;;34.38;47.79
37170;BME280;23062;13.952;100.608;2023-04-06T10:24:55;1005.08;;;34.35;46.79
37170;BME280;23062;13.952;100.608;2023-04-06T10:29:21;1005.02;;;34.34;46.58
37170;BME280;23062;13.952;100.608;2023-04-06T10:33:54;1004.98;;;34.27;46.58
37170;BME280;23062;13.952;100.608;2023-04-06T10:38:20;1004.98;;;34.28;46.27
37170;BME280;23062;13.952;100.608;2023-04-06T10:42:46;1004.94;;;34.27;46.61
37170;BME280;23062;13.952;100.608;2023-04-06T10:47:20;1004.98;;;34.21;47.30
37170;BME280;23062;13.952;100.608;2023-04-06T10:51:38;1005.06;;;34.24;46.99
37170;BME280;23062;13.952;100.608;2023-04-06T10:56:10;1005.18;;;34.20;46.75
37170;BME280;23062;13.952;100.608;2023-04-06T11:00:35;1005.20;;;34.17;46.76
37170;BME280;23062;13.952;100.608;2023-04-06T11:05:05;1005.21;;;34.15;46.82
37170;BME280;23062;13.952;100.608;2023-04-06T11:09:31;1005.20;;;34.18;46.43
37170;BME280;23062;13.952;100.608;2023-04-06T11:13:57;1005.40;;;34.12;46.46
37170;BME280;23062;13.952;100.608;2023-04-06T11:18:22;1005.50;;;34.12;46.35
37170;BME280;23062;13.952;100.608;2023-04-06T11:22:51;1005.50;;;34.13;46.41
37170;BME280;23062;13.952;100.608;2023-04-06T11:27:16;1005.54;;;34.06;46.14
37170;BME280;23062;13.952;100.608;2023-04-06T11:31:51;1005.57;;;34.10;45.27
37170;BME280;23062;13.952;100.608;2023-04-06T11:36:17;1005.68;;;34.10;44.90
37170;BME280;23062;13.952;100.608;2023-04-06T11:40:58;1005.73;;;34.10;44.82
37170;BME280;23062;13.952;100.608;2023-04-06T11:45:24;1005.81;;;34.08;44.45
37170;BME280;23062;13.952;100.608;2023-04-06T11:49:49;1005.89;;;34.08;44.39
37170;BME280;23062;13.952;100.608;2023-04-06T11:55:19;1005.93;;;34.16;44.56
37170;BME280;23062;13.952;100.608;2023-04-06T11:59:45;1005.96;;;34.42;43.35
37170;BME280;23062;13.952;100.608;2023-04-06T12:04:10;1006.02;;;34.41;43.19
37170;BME280;23062;13.952;100.608;2023-04-06T12:08:35;1006.10;;;34.38;43.66
37170;BME280;23062;13.952;100.608;2023-04-06T12:13:00;1006.13;;;34.37;43.94
37170;BME280;23062;13.952;100.608;2023-04-06T12:17:27;1006.23;;;34.39;44.10
37170;BME280;23062;13.952;100.608;2023-04-06T12:21:55;1006.22;;;34.38;44.51
37170;BME280;23062;13.952;100.608;2023-04-06T12:26:23;1006.26;;;34.35;45.14
37170;BME280;23062;13.952;100.608;2023-04-06T12:30:48;1006.35;;;34.35;45.62
37170;BME280;23062;13.952;100.608;2023-04-06T12:35:17;1006.35;;;34.34;46.10
37170;BME280;23062;13.952;100.608;2023-04-06T12:39:42;1006.43;;;34.38;46.53
37170;BME280;23062;13.952;100.608;2023-04-06T12:44:10;1006.49;;;34.36;47.18
37170;BME280;23062;13.952;100.608;2023-04-06T12:48:36;1006.60;;;34.34;47.80
37170;BME280;23062;13.952;100.608;2023-04-06T12:53:00;1006.69;;;34.36;48.09
37170;BME280;23062;13.952;100.608;2023-04-06T12:57:25;1006.76;;;34.29;48.61
37170;BME280;23062;13.952;100.608;2023-04-06T13:01:50;1006.82;;;34.32;48.71
37170;BME280;23062;13.952;100.608;2023-04-06T13:06:15;1006.88;;;34.34;48.73
37170;BME280;23062;13.952;100.608;2023-04-06T13:10:49;1006.92;;;34.30;48.97
37170;BME280;23062;13.952;100.608;2023-04-06T13:15:11;1006.88;;;34.31;48.98
37170;BME280;23062;13.952;100.608;2023-04-06T13:19:36;1006.97;;;34.30;49.16
37170;BME280;23062;13.952;100.608;2023-04-06T13:24:02;1007.13;;;34.26;49.46
37170;BME280;23062;13.952;100.608;2023-04-06T13:28:28;1007.23;;;34.26;49.60
37170;BME280;23062;13.952;100.608;2023-04-06T13:32:52;1007.26;;;34.25;49.70
37170;BME280;23062;13.952;100.608;2023-04-06T13:37:17;1007.34;;;34.27;50.14
37170;BME280;23062;13.952;100.608;2023-04-06T13:41:42;1007.34;;;34.25;49.95
37170;BME280;23062;13.952;100.608;2023-04-06T13:46:08;1007.52;;;34.24;50.08
37170;BME280;23062;13.952;100.608;2023-04-06T13:50:33;1007.55;;;34.20;50.40
37170;BME280;23062;13.952;100.608;2023-04-06T13:54:59;1007.61;;;34.20;50.47
37170;BME280;23062;13.952;100.608;2023-04-06T13:59:23;1007.65;;;34.20;50.67
37170;BME280;23062;13.952;100.608;2023-04-06T14:03:49;1007.71;;;34.20;50.56
37170;BME280;23062;13.952;100.608;2023-04-06T14:08:14;1007.72;;;34.32;50.54
37170;BME280;23062;13.952;100.608;2023-04-06T14:12:47;1007.80;;;34.50;50.79
37170;BME280;23062;13.952;100.608;2023-04-06T14:17:09;1007.86;;;34.54;50.88
37170;BME280;23062;13.952;100.608;2023-04-06T14:21:34;1007.88;;;34.53;51.16
37170;BME280;23062;13.952;100.608;2023-04-06T14:26:09;1007.92;;;34.52;51.22
37170;BME280;23062;13.952;100.608;2023-04-06T14:30:35;1008.01;;;34.55;51.02
37170;BME280;23062;13.952;100.608;2023-04-06T14:35:00;1008.07;;;34.53;50.88
37170;BME280;23062;13.952;100.608;2023-04-06T14:39:24;1008.19;;;34.56;50.81
37170;BME280;23062;13.952;100.608;2023-04-06T14:43:57;1008.22;;;34.51;50.89
37170;BME280;23062;13.952;100.608;2023-04-06T14:48:21;1008.18;;;34.54;50.63
37170;BME280;23062;13.952;100.608;2023-04-06T14:52:46;1008.23;;;34.52;50.95
37170;BME280;23062;13.952;100.608;2023-04-06T14:57:11;1008.29;;;34.51;51.24
37170;BME280;23062;13.952;100.608;2023-04-06T15:01:36;1008.39;;;34.48;51.36
37170;BME280;23062;13.952;100.608;2023-04-06T15:06:01;1008.40;;;34.43;51.25
37170;BME280;23062;13.952;100.608;2023-04-06T15:10:33;1008.48;;;34.48;51.02
37170;BME280;23062;13.952;100.608;2023-04-06T15:14:58;1008.48;;;34.54;50.79
37170;BME280;23062;13.952;100.608;2023-04-06T15:19:27;1008.57;;;34.47;51.33
37170;BME280;23062;13.952;100.608;2023-04-06T15:23:56;1008.58;;;34.53;51.00
37170;BME280;23062;13.952;100.608;2023-04-06T15:28:28;1008.61;;;34.49;51.36
37170;BME280;23062;13.952;100.608;2023-04-06T15:32:58;1008.64;;;34.47;51.49
37170;BME280;23062;13.952;100.608;2023-04-06T15:37:27;1008.69;;;34.44;51.74
37170;BME280;23062;13.952;100.608;2023-04-06T15:41:53;1008.67;;;34.44;51.61
37170;BME280;23062;13.952;100.608;2023-04-06T15:46:38;1008.69;;;34.37;51.74
37170;BME280;23062;13.952;100.608;2023-04-06T15:51:10;1008.70;;;34.39;51.92
37170;BME280;23062;13.952;100.608;2023-04-06T15:55:35;1008.73;;;34.38;51.86
37170;BME280;23062;13.952;100.608;2023-04-06T16:00:01;1008.75;;;34.39;51.89
37170;BME280;23062;13.952;100.608;2023-04-06T16:04:27;1008.78;;;34.39;51.80
37170;BME280;23062;13.952;100.608;2023-04-06T16:08:55;1008.83;;;34.40;51.83
37170;BME280;23062;13.952;100.608;2023-04-06T16:13:19;1008.81;;;34.39;51.83
37170;BME280;23062;13.952;100.608;2023-04-06T16:17:44;1008.80;;;34.36;52.25
37170;BME280;23062;13.952;100.608;2023-04-06T16:22:16;1008.73;;;34.35;52.46
37170;BME280;23062;13.952;100.608;2023-04-06T16:26:41;1008.67;;;34.33;52.37
37170;BME280;23062;13.952;100.608;2023-04-06T16:31:18;1008.66;;;34.32;52.37
37170;BME280;23062;13.952;100.608;2023-04-06T16:35:48;1008.66;;;34.33;52.38
37170;BME280;23062;13.952;100.608;2023-04-06T16:40:13;1008.63;;;34.34;52.66
37170;BME280;23062;13.952;100.608;2023-04-06T16:44:39;1008.55;;;34.36;52.31
37170;BME280;23062;13.952;100.608;2023-04-06T16:49:04;1008.52;;;34.33;52.74
37170;BME280;23062;13.952;100.608;2023-04-06T16:53:29;1008.42;;;34.29;52.91
37170;BME280;23062;13.952;100.608;2023-04-06T16:57:57;1008.36;;;34.38;52.33
37170;BME280;23062;13.952;100.608;2023-04-06T17:02:23;1008.24;;;34.38;52.46
37170;BME280;23062;13.952;100.608;2023-04-06T17:06:48;1008.30;;;34.37;52.48
37170;BME280;23062;13.952;100.608;2023-04-06T17:11:16;1008.29;;;34.35;52.99
37170;BME280;23062;13.952;100.608;2023-04-06T17:15:41;1008.24;;;34.34;53.19
37170;BME280;23062;13.952;100.608;2023-04-06T17:20:08;1008.21;;;34.34;54.43
37170;BME280;23062;13.952;100.608;2023-04-06T17:24:39;1008.22;;;34.31;53.89
37170;BME280;23062;13.952;100.608;2023-04-06T17:29:04;1008.22;;;34.33;54.64
37170;BME280;23062;13.952;100.608;2023-04-06T17:33:29;1008.26;;;34.27;53.78
37170;BME280;23062;13.952;100.608;2023-04-06T17:37:55;1008.16;;;34.28;54.68
37170;BME280;23062;13.952;100.608;2023-04-06T17:42:20;1008.13;;;34.31;54.12
37170;BME280;23062;13.952;100.608;2023-04-06T17:46:46;1008.04;;;34.27;54.82
37170;BME280;23062;13.952;100.608;2023-04-06T17:51:13;1008.05;;;34.28;55.36
37170;BME280;23062;13.952;100.608;2023-04-06T17:55:39;1008.04;;;34.24;55.40
37170;BME280;23062;13.952;100.608;2023-04-06T18:00:05;1008.02;;;34.21;55.68
37170;BME280;23062;13.952;100.608;2023-04-06T18:04:31;1007.88;;;34.24;54.40
37170;BME280;23062;13.952;100.608;2023-04-06T18:09:03;1007.85;;;34.23;55.11
37170;BME280;23062;13.952;100.608;2023-04-06T18:13:29;1007.86;;;34.19;55.72
37170;BME280;23062;13.952;100.608;2023-04-06T18:17:54;1007.80;;;34.22;55.41
37170;BME280;23062;13.952;100.608;2023-04-06T18:22:19;1007.79;;;34.21;55.40
37170;BME280;23062;13.952;100.608;2023-04-06T18:26:43;1007.72;;;34.19;55.61
37170;BME280;23062;13.952;100.608;2023-04-06T18:31:08;1007.70;;;34.20;55.06
37170;BME280;23062;13.952;100.608;2023-04-06T18:35:33;1007.65;;;34.21;54.93
37170;BME280;23062;13.952;100.608;2023-04-06T18:39:58;1007.63;;;34.20;55.64
37170;BME280;23062;13.952;100.608;2023-04-06T18:44:23;1007.56;;;34.17;54.77
37170;BME280;23062;13.952;100.608;2023-04-06T18:48:49;1007.55;;;34.16;55.76
37170;BME280;23062;13.952;100.608;2023-04-06T18:53:14;1007.53;;;34.13;56.19
37170;BME280;23062;13.952;100.608;2023-04-06T18:57:40;1007.52;;;34.13;56.49
37170;BME280;23062;13.952;100.608;2023-04-06T19:02:04;1007.46;;;34.13;55.94
37170;BME280;23062;13.952;100.608;2023-04-06T19:06:32;1007.43;;;34.05;56.75
37170;BME280;23062;13.952;100.608;2023-04-06T19:10:57;1007.41;;;34.04;56.13
37170;BME280;23062;13.952;100.608;2023-04-06T19:15:22;1007.39;;;34.10;56.03
37170;BME280;23062;13.952;100.608;2023-04-06T19:19:47;1007.36;;;34.11;55.72
37170;BME280;23062;13.952;100.608;2023-04-06T19:24:15;1007.32;;;34.10;56.12
37170;BME280;23062;13.952;100.608;2023-04-06T19:28:40;1007.30;;;34.05;55.62
37170;BME280;23062;13.952;100.608;2023-04-06T19:33:04;1007.19;;;34.09;56.43
37170;BME280;23062;13.952;100.608;2023-04-06T19:37:30;1007.21;;;34.06;56.01
37170;BME280;23062;13.952;100.608;2023-04-06T19:42:02;1007.22;;;34.07;55.49
37170;BME280;23062;13.952;100.608;2023-04-06T19:46:27;1007.18;;;34.07;55.69
37170;BME280;23062;13.952;100.608;2023-04-06T19:50:55;1007.21;;;34.06;55.93
37170;BME280;23062;13.952;100.608;2023-04-06T19:55:19;1007.11;;;33.77;55.99
37170;BME280;23062;13.952;100.608;2023-04-06T19:59:45;1007.08;;;33.74;56.05
37170;BME280;23062;13.952;100.608;2023-04-06T20:04:13;1007.05;;;33.71;56.13
37170;BME280;23062;13.952;100.608;2023-04-06T20:08:46;1006.93;;;33.68;56.17
37170;BME280;23062;13.952;100.608;2023-04-06T20:13:11;1006.92;;;33.72;56.08
37170;BME280;23062;13.952;100.608;2023-04-06T20:17:44;1006.77;;;33.69;56.13
37170;BME280;23062;13.952;100.608;2023-04-06T20:22:09;1006.81;;;33.70;56.15
37170;BME280;23062;13.952;100.608;2023-04-06T20:26:35;1006.86;;;33.70;56.09
37170;BME280;23062;13.952;100.608;2023-04-06T20:31:00;1006.85;;;33.71;56.09
37170;BME280;23062;13.952;100.608;2023-04-06T20:35:32;1006.90;;;33.69;56.21
37170;BME280;23062;13.952;100.608;2023-04-06T20:40:06;1006.90;;;33.68;56.26
37170;BME280;23062;13.952;100.608;2023-04-06T20:44:31;1006.95;;;33.69;56.24
37170;BME280;23062;13.952;100.608;2023-04-06T20:48:57;1007.02;;;33.61;56.91
37170;BME280;23062;13.952;100.608;2023-04-06T20:53:23;1007.15;;;33.52;57.69
37170;BME280;23062;13.952;100.608;2023-04-06T20:57:47;1007.18;;;33.44;58.21
37170;BME280;23062;13.952;100.608;2023-04-06T21:02:12;1007.19;;;33.35;58.76
37170;BME280;23062;13.952;100.608;2023-04-06T21:06:37;1007.23;;;33.37;59.05
37170;BME280;23062;13.952;100.608;2023-04-06T21:11:02;1007.25;;;33.28;59.43
37170;BME280;23062;13.952;100.608;2023-04-06T21:15:28;1007.28;;;33.28;59.38
37170;BME280;23062;13.952;100.608;2023-04-06T21:19:53;1007.34;;;33.26;59.64
37170;BME280;23062;13.952;100.608;2023-04-06T21:24:18;1007.37;;;33.18;60.00
37170;BME280;23062;13.952;100.608;2023-04-06T21:28:42;1007.42;;;33.17;60.10
37170;BME280;23062;13.952;100.608;2023-04-06T21:33:08;1007.52;;;33.16;60.19
37170;BME280;23062;13.952;100.608;2023-04-06T21:37:33;1007.61;;;33.19;60.13
37170;BME280;23062;13.952;100.608;2023-04-06T21:41:58;1007.74;;;33.17;60.35
37170;BME280;23062;13.952;100.608;2023-04-06T21:46:24;1007.84;;;33.15;60.32
37170;BME280;23062;13.952;100.608;2023-04-06T21:50:48;1007.93;;;33.12;60.31
37170;BME280;23062;13.952;100.608;2023-04-06T21:55:16;1007.97;;;33.11;60.50
37170;BME280;23062;13.952;100.608;2023-04-06T21:59:44;1008.07;;;33.08;61.09
37170;BME280;23062;13.952;100.608;2023-04-06T22:04:13;1008.15;;;33.09;60.59
37170;BME280;23062;13.952;100.608;2023-04-06T22:08:39;1008.30;;;33.12;60.47
37170;BME280;23062;13.952;100.608;2023-04-06T22:13:12;1008.40;;;33.12;60.48
37170;BME280;23062;13.952;100.608;2023-04-06T22:17:37;1008.47;;;33.08;61.49
37170;BME280;23062;13.952;100.608;2023-04-06T22:22:10;1008.57;;;33.09;61.14
37170;BME280;23062;13.952;100.608;2023-04-06T22:26:41;1008.65;;;32.99;61.98
37170;BME280;23062;13.952;100.608;2023-04-06T22:31:09;1008.65;;;32.94;62.36
37170;BME280;23062;13.952;100.608;2023-04-06T22:35:38;1008.64;;;32.93;62.33
37170;BME280;23062;13.952;100.608;2023-04-06T22:40:03;1008.69;;;32.90;62.48
37170;BME280;23062;13.952;100.608;2023-04-06T22:44:28;1008.86;;;32.95;62.51
37170;BME280;23062;13.952;100.608;2023-04-06T22:48:52;1008.94;;;32.93;62.82
37170;BME280;23062;13.952;100.608;2023-04-06T22:53:17;1009.01;;;32.96;62.88
37170;BME280;23062;13.952;100.608;2023-04-06T22:57:42;1009.18;;;33.17;62.07
37170;BME280;23062;13.952;100.608;2023-04-06T23:02:07;1009.22;;;33.20;61.82
37170;BME280;23062;13.952;100.608;2023-04-06T23:06:33;1009.24;;;33.24;61.76
37170;BME280;23062;13.952;100.608;2023-04-06T23:10:59;1009.28;;;33.24;61.74
37170;BME280;23062;13.952;100.608;2023-04-06T23:15:26;1009.39;;;33.26;61.63
37170;BME280;23062;13.952;100.608;2023-04-06T23:19:53;1009.42;;;33.26;61.56
37170;BME280;23062;13.952;100.608;2023-04-06T23:24:18;1009.54;;;33.27;61.50